Aérodrome :
LOGIN :

S'inscrire | Disclaimer

   EN    FR    IT 

 










Légende :    VFR   VFR Marginal   IFR   IFR Intensif   IFR Très Intensif
Visi : 
Plafond : 
>= 8 km
>= 3000ft
5 à 8 km
1000 à 3000 ft
1500m à 5 km
500 à 1000 ft
800 à 1500m
200 à 500 ft
< 800m
< 200 ft
Symboles :   Orages  Brouillard  Fortes neiges  Fortes précipitations  Vent > 20 kt
SIGMETs :   Divers  Orages  Givrage  Turbulence  Onde Orograph.  Cendres Volcan.






- Altitude de l'aérodrome : 622 ft
- Code IATA : BRS


EGGD - Bristol Int.

DERNIER METAR :
  • 190450Z AUTO 14004KT 9999 NCD 03/01 Q1015

METARs EXPIRÉS :
  • 190420Z AUTO 16004KT 9999 NCD 03/01 Q1015
  • 190350Z AUTO 16004KT 9999 BKN021 03/01 Q1015
  • 190320Z AUTO 15005KT 9999 NCD 03/01 Q1016
  • 190250Z AUTO 17004KT 9999 NCD 02/01 Q1016
  • 190220Z AUTO 18004KT 9999 NCD 02/01 Q1016
  • 190150Z AUTO 17004KT 9999 NCD 02/00 Q1016

TAF TAF EGGD
Valide du 19 à 00h jusqu'au 20 à 00h UTC


182258Z 1900/1924 VRB03KT 9999 SCT020
TEMPO 1900/1908 6000
PROB30 1903/1907 4000 BR
BECMG 1906/1909 12010KT
ATIS : +44 1275 473 666



MET'MAP, la Météo Aéronautique d'un coup d'oeil ! - Copyright ORBIFLY Décembre 2007 - Disclaimer

ORBIFLY MET'MAP TEAM :

Programmation & Développement : Alexandra Zaïnal
Conception & Développement : Baudouin d'Aumeries
Co-Programmation & Développement : Marc-Olivier Méhu
Soutien technique & logistique : Manuel Goepfert

Contact : metmap@orbifly.com




SOURCES & CREDITS :

   NOAA